Time;durP1;ratioP1;P1;durP2;ratioP2;P2;SDS_P1;SDS_P2;PMS_P1;PMS_P2;Temp;Humidity;BMP_temperature;BMP_pressure;BME280_temperature;BME280_humidity;BME280_pressure;Samples;Min_cycle;Max_cycle;Signal;HPM_P1;HPM_P2
2022/03/03 00:00:19;;;;;;;16.57;8.80;;;-1.00;99.90;;;;;;4860157;29;20492;-83
2022/03/03 00:02:46;;;;;;;17.50;9.50;;;-1.00;99.90;;;;;;4877823;29;20489;-83
2022/03/03 00:05:14;;;;;;;17.33;8.90;;;-1.00;99.90;;;;;;4876425;29;20815;-83
2022/03/03 00:07:42;;;;;;;14.75;8.52;;;-1.10;99.90;;;;;;4861203;29;20409;-83
2022/03/03 00:10:10;;;;;;;15.30;8.00;;;-1.10;99.90;;;;;;4893817;29;20490;-83
2022/03/03 00:12:38;;;;;;;16.33;8.98;;;-1.10;99.90;;;;;;4895942;29;20954;-83
2022/03/03 00:15:06;;;;;;;17.08;9.20;;;-1.10;99.90;;;;;;4881846;29;20407;-83
2022/03/03 00:17:33;;;;;;;15.75;8.73;;;-1.10;99.90;;;;;;4881626;29;20424;-83
2022/03/03 00:20:01;;;;;;;15.82;8.68;;;-1.00;99.90;;;;;;4864964;29;20410;-83
2022/03/03 00:22:29;;;;;;;15.48;8.65;;;-1.00;99.90;;;;;;4864975;29;20431;-83
2022/03/03 00:24:56;;;;;;;15.70;8.52;;;-0.90;99.90;;;;;;4895960;29;20435;-83
2022/03/03 00:27:24;;;;;;;16.77;9.63;;;-0.90;99.90;;;;;;4880196;29;20417;-83
2022/03/03 00:29:52;;;;;;;18.87;9.80;;;-0.80;99.90;;;;;;4880159;29;20922;-82
2022/03/03 00:32:20;;;;;;;17.77;9.00;;;-0.90;99.90;;;;;;4880308;29;20411;-83
2022/03/03 00:34:48;;;;;;;17.63;8.73;;;-1.00;99.90;;;;;;4895608;29;20902;-83
2022/03/03 00:37:17;;;;;;;15.90;8.60;;;-1.00;99.90;;;;;;4880980;29;20807;-83
2022/03/03 00:39:44;;;;;;;16.05;8.13;;;-0.90;99.90;;;;;;4881127;29;20913;-83
2022/03/03 00:42:12;;;;;;;16.42;8.90;;;-1.00;99.90;;;;;;4881080;29;20407;-83
2022/03/03 00:44:39;;;;;;;15.20;8.98;;;-1.00;99.90;;;;;;4881055;29;20490;-83
2022/03/03 00:47:07;;;;;;;15.95;9.25;;;-0.90;99.90;;;;;;4880884;29;20403;-83
2022/03/03 00:49:35;;;;;;;17.52;8.95;;;-0.80;99.90;;;;;;4895261;29;20406;-83
2022/03/03 00:52:03;;;;;;;16.10;9.23;;;-0.80;99.90;;;;;;4879685;29;20414;-83
2022/03/03 00:54:30;;;;;;;17.95;9.82;;;-0.80;99.90;;;;;;4880939;29;20399;-84
2022/03/03 00:56:58;;;;;;;17.23;9.93;;;-0.90;99.90;;;;;;4879688;29;20406;-81
2022/03/03 00:59:25;;;;;;;19.73;10.35;;;-1.00;99.90;;;;;;4881077;29;20417;-81
2022/03/03 01:01:52;;;;;;;18.23;9.70;;;-0.90;99.90;;;;;;4895082;29;20410;-83
2022/03/03 01:04:22;;;;;;;17.60;9.25;;;-0.90;99.90;;;;;;4864200;29;20446;-81
2022/03/03 01:06:50;;;;;;;18.85;10.15;;;-0.90;99.90;;;;;;4880832;29;20413;-81
2022/03/03 01:09:18;;;;;;;18.38;9.88;;;-0.90;99.90;;;;;;4895019;29;20431;-81
2022/03/03 01:11:45;;;;;;;18.02;9.63;;;-0.90;99.90;;;;;;4895000;29;20499;-82
2022/03/03 01:14:13;;;;;;;17.45;9.13;;;-1.00;99.90;;;;;;4879507;29;20403;-82
2022/03/03 01:16:40;;;;;;;16.33;8.80;;;-0.90;99.90;;;;;;4879258;29;20843;-82
2022/03/03 01:19:08;;;;;;;16.07;9.17;;;-0.80;99.90;;;;;;4879141;29;20649;-82
2022/03/03 01:21:35;;;;;;;14.70;8.90;;;-0.90;99.90;;;;;;4879468;29;20414;-82
2022/03/03 01:24:03;;;;;;;15.60;8.52;;;-0.90;99.90;;;;;;4879122;29;20474;-82
2022/03/03 01:26:30;;;;;;;19.23;10.27;;;-0.90;99.90;;;;;;4894680;29;20417;-82
2022/03/03 01:28:58;;;;;;;17.30;10.27;;;-0.90;99.90;;;;;;4879116;29;20418;-82
2022/03/03 01:31:26;;;;;;;18.20;10.30;;;-0.90;99.90;;;;;;4879374;29;20918;-82
2022/03/03 01:33:53;;;;;;;17.00;10.63;;;-0.80;99.90;;;;;;4894752;29;20410;-82
2022/03/03 01:36:21;;;;;;;18.70;10.43;;;-0.80;99.90;;;;;;4878880;29;20910;-81
2022/03/03 01:38:48;;;;;;;19.80;11.35;;;-0.90;99.90;;;;;;4894499;29;20835;-84
2022/03/03 01:41:16;;;;;;;18.75;10.95;;;-1.00;99.90;;;;;;4878896;29;20818;-81
2022/03/03 01:43:43;;;;;;;21.45;12.20;;;-1.00;99.90;;;;;;4878835;29;20451;-85
2022/03/03 01:46:11;;;;;;;22.42;11.75;;;-1.10;99.90;;;;;;4894226;29;20406;-84
2022/03/03 01:48:39;;;;;;;20.20;11.63;;;-1.00;99.90;;;;;;4878840;29;20421;-83
2022/03/03 01:51:06;;;;;;;17.48;10.63;;;-0.90;99.90;;;;;;4879954;29;20477;-84
2022/03/03 01:53:34;;;;;;;19.75;11.25;;;-0.80;99.90;;;;;;4879923;29;20890;-82
2022/03/03 01:56:02;;;;;;;19.52;10.80;;;-0.80;99.90;;;;;;4879841;29;20726;-83
2022/03/03 01:58:30;;;;;;;19.52;11.38;;;-0.90;99.90;;;;;;4863359;29;20463;-84
2022/03/03 02:00:58;;;;;;;20.45;10.95;;;-0.90;99.90;;;;;;4878597;29;20415;-82
2022/03/03 02:03:25;;;;;;;20.45;10.95;;;-0.90;99.90;;;;;;4878514;29;20656;-82
2022/03/03 02:05:53;;;;;;;19.37;10.50;;;-1.00;99.90;;;;;;4878449;29;20417;-83
2022/03/03 02:08:22;;;;;;;18.17;10.70;;;-0.90;99.90;;;;;;4878468;29;20463;-84
2022/03/03 02:10:53;;;;;;;19.63;11.10;;;-0.90;99.90;;;;;;4878782;29;20446;-84
2022/03/03 02:13:21;;;;;;;19.67;10.10;;;-0.90;99.90;;;;;;4879551;29;20455;-83
2022/03/03 02:15:53;;;;;;;18.08;10.18;;;-0.90;99.90;;;;;;4879624;29;20984;-85
2022/03/03 02:18:21;;;;;;;18.92;10.82;;;-1.00;99.90;;;;;;4878411;29;20422;-84
2022/03/03 02:20:49;;;;;;;20.00;10.85;;;-0.90;99.90;;;;;;4878267;29;20404;-84
2022/03/03 02:23:18;;;;;;;17.27;10.05;;;-0.90;99.90;;;;;;4875869;29;20442;-84
2022/03/03 02:25:46;;;;;;;17.02;10.20;;;-0.90;99.90;;;;;;4878330;29;20772;-84
2022/03/03 02:28:14;;;;;;;16.92;9.63;;;-0.80;99.90;;;;;;4878096;29;20444;-83
2022/03/03 02:30:41;;;;;;;16.98;9.68;;;-0.80;99.90;;;;;;4878131;29;20414;-83
2022/03/03 02:33:09;;;;;;;16.27;9.47;;;-0.80;99.90;;;;;;4877735;29;20407;-83
2022/03/03 02:35:36;;;;;;;18.88;10.02;;;-0.80;99.90;;;;;;4862669;29;20459;-84
2022/03/03 02:38:04;;;;;;;17.15;9.48;;;-0.90;99.90;;;;;;4877822;29;20778;-84
2022/03/03 02:40:31;;;;;;;17.50;9.30;;;-0.80;99.90;;;;;;4877913;29;20436;-83
2022/03/03 02:42:59;;;;;;;19.17;10.23;;;-0.90;99.90;;;;;;4893466;29;20421;-83
2022/03/03 02:45:26;;;;;;;18.48;10.25;;;-0.80;99.90;;;;;;4893242;29;20403;-83
2022/03/03 02:47:54;;;;;;;16.48;9.77;;;-0.80;99.90;;;;;;4877917;29;20812;-83
2022/03/03 02:50:24;;;;;;;16.85;10.02;;;-0.80;99.90;;;;;;4862432;29;20973;-83
2022/03/03 02:52:52;;;;;;;18.35;10.10;;;-0.80;99.90;;;;;;4877599;29;20405;-83
2022/03/03 02:55:20;;;;;;;19.08;10.05;;;-0.70;99.90;;;;;;4862654;29;20662;-83
2022/03/03 02:57:54;;;;;;;18.50;9.82;;;-0.80;99.90;;;;;;4874222;29;20419;-82
2022/03/03 03:00:28;;;;;;;15.13;9.15;;;-0.80;99.90;;;;;;4867626;29;20405;-83
2022/03/03 03:02:56;;;;;;;16.13;9.68;;;-0.90;99.90;;;;;;4862165;29;20786;-83
2022/03/03 03:05:24;;;;;;;17.60;9.60;;;-0.80;99.90;;;;;;4877557;29;20407;-83
2022/03/03 03:07:52;;;;;;;17.58;9.90;;;-0.80;99.90;;;;;;4877508;29;20403;-83
2022/03/03 03:10:19;;;;;;;16.20;9.68;;;-0.90;99.90;;;;;;4878564;29;20402;-83
2022/03/03 03:12:47;;;;;;;15.80;9.07;;;-0.80;99.90;;;;;;4878512;29;20403;-83
2022/03/03 03:15:16;;;;;;;17.92;9.63;;;-0.80;99.90;;;;;;4877271;29;20455;-83
2022/03/03 03:17:43;;;;;;;17.27;9.27;;;-0.80;99.90;;;;;;4892721;29;20404;-83
2022/03/03 03:20:12;;;;;;;19.55;10.75;;;-0.80;99.90;;;;;;4877068;29;20758;-83
2022/03/03 03:22:40;;;;;;;17.27;9.50;;;-0.80;99.90;;;;;;4878678;29;21044;-83
2022/03/03 03:25:12;;;;;;;17.05;10.30;;;-0.80;99.90;;;;;;4877110;29;20407;-82
2022/03/03 03:27:43;;;;;;;16.38;9.20;;;-0.70;99.90;;;;;;4878291;29;20403;-82
2022/03/03 03:30:13;;;;;;;15.93;8.88;;;-0.70;99.90;;;;;;4877100;29;20421;-83
2022/03/03 03:32:40;;;;;;;17.80;8.90;;;-0.80;99.90;;;;;;4878234;29;20816;-84
2022/03/03 03:35:08;;;;;;;16.27;9.00;;;-0.80;99.90;;;;;;4862055;29;20782;-83
2022/03/03 03:37:36;;;;;;;17.63;9.43;;;-0.80;99.90;;;;;;4876786;29;20970;-84
2022/03/03 03:40:06;;;;;;;18.23;9.25;;;-0.80;99.90;;;;;;4876769;29;20918;-81
2022/03/03 03:42:33;;;;;;;15.23;9.15;;;-0.80;99.90;;;;;;4876987;29;20410;-83
2022/03/03 03:45:01;;;;;;;15.40;8.60;;;-0.80;99.90;;;;;;4876416;29;20454;-83
2022/03/03 03:47:30;;;;;;;16.15;8.73;;;-0.80;99.90;;;;;;4876936;29;20886;-83
2022/03/03 03:50:02;;;;;;;14.88;8.75;;;-0.80;99.90;;;;;;4892161;29;20410;-83
2022/03/03 03:52:30;;;;;;;14.80;8.27;;;-0.80;99.90;;;;;;4876811;29;20407;-83
2022/03/03 03:54:58;;;;;;;15.90;8.23;;;-0.80;99.90;;;;;;4877926;29;20411;-83
2022/03/03 03:57:26;;;;;;;16.83;9.40;;;-0.80;99.90;;;;;;4877867;29;20953;-83
2022/03/03 03:59:54;;;;;;;14.73;7.93;;;-0.80;99.90;;;;;;4892039;29;20506;-83
2022/03/03 04:02:21;;;;;;;16.60;8.75;;;-0.80;99.90;;;;;;4876257;29;20406;-83
2022/03/03 04:04:49;;;;;;;13.63;7.22;;;-0.90;99.90;;;;;;4877668;29;20402;-83
2022/03/03 04:07:18;;;;;;;14.07;7.83;;;-0.90;99.90;;;;;;4877752;29;20407;-84
2022/03/03 04:09:46;;;;;;;15.95;7.68;;;-1.00;99.90;;;;;;4892052;29;20568;-84
2022/03/03 04:12:13;;;;;;;13.17;6.50;;;-1.00;99.90;;;;;;4876466;29;20419;-83
2022/03/03 04:14:41;;;;;;;13.23;6.83;;;-1.00;99.90;;;;;;4876642;29;20403;-83
2022/03/03 04:17:09;;;;;;;13.48;7.13;;;-1.00;99.90;;;;;;4891951;29;20409;-84
2022/03/03 04:19:36;;;;;;;12.73;6.72;;;-0.90;99.90;;;;;;4876915;29;20873;-83
2022/03/03 04:22:04;;;;;;;12.75;7.15;;;-0.90;99.90;;;;;;4876521;29;20406;-83
2022/03/03 04:24:31;;;;;;;12.48;6.15;;;-0.90;99.90;;;;;;4876530;29;20399;-84
2022/03/03 04:26:59;;;;;;;14.70;7.20;;;-1.00;99.90;;;;;;4877933;29;20893;-83
2022/03/03 04:29:26;;;;;;;10.82;6.05;;;-1.00;99.90;;;;;;4877564;29;20490;-83
2022/03/03 04:31:54;;;;;;;12.68;6.57;;;-1.00;99.90;;;;;;4861049;29;20928;-83
2022/03/03 04:34:21;;;;;;;10.88;6.70;;;-0.90;99.90;;;;;;4877584;29;20399;-83
2022/03/03 04:36:49;;;;;;;13.02;5.75;;;-0.80;99.90;;;;;;4886977;29;20439;-83
2022/03/03 04:39:16;;;;;;;10.98;5.97;;;-0.80;99.90;;;;;;4876298;29;20415;-83
2022/03/03 04:41:44;;;;;;;10.18;5.57;;;-0.80;99.90;;;;;;4860980;29;20898;-84
2022/03/03 04:44:11;;;;;;;12.25;5.40;;;-0.90;99.90;;;;;;4891804;29;20406;-83
2022/03/03 04:46:39;;;;;;;13.30;6.22;;;-1.00;99.90;;;;;;4860812;29;20445;-83
2022/03/03 04:49:07;;;;;;;10.45;5.85;;;-1.10;99.90;;;;;;4876137;29;20415;-83
2022/03/03 04:51:39;;;;;;;11.02;6.20;;;-1.10;99.90;;;;;;4876676;29;20452;-84
2022/03/03 04:54:08;;;;;;;11.25;5.63;;;-1.10;99.90;;;;;;4875771;29;20486;-83
2022/03/03 04:56:38;;;;;;;12.05;5.85;;;-1.00;99.90;;;;;;4877492;29;20410;-84
2022/03/03 04:59:06;;;;;;;11.55;5.47;;;-1.10;99.90;;;;;;4879650;29;20415;-84
2022/03/03 05:01:33;;;;;;;10.73;5.65;;;-1.10;99.90;;;;;;4880911;29;20958;-83
2022/03/03 05:04:01;;;;;;;10.83;5.30;;;-1.00;99.90;;;;;;4879639;29;20395;-83
2022/03/03 05:06:29;;;;;;;11.18;6.03;;;-1.10;99.90;;;;;;4879489;29;20407;-84
2022/03/03 05:08:56;;;;;;;12.03;6.17;;;-1.00;99.90;;;;;;4879557;29;20497;-83
2022/03/03 05:11:24;;;;;;;11.05;5.90;;;-0.90;99.90;;;;;;4879701;29;20398;-84
2022/03/03 05:13:51;;;;;;;11.80;6.13;;;-0.90;99.90;;;;;;4880631;29;20901;-85
2022/03/03 05:16:19;;;;;;;11.95;6.57;;;-0.80;99.90;;;;;;4878480;29;20475;-83
2022/03/03 05:18:46;;;;;;;12.40;6.18;;;-0.70;99.90;;;;;;4879281;29;20419;-83
2022/03/03 05:21:14;;;;;;;11.00;5.38;;;-0.80;99.90;;;;;;4880291;29;20411;-83
2022/03/03 05:23:41;;;;;;;12.00;5.80;;;-0.90;99.90;;;;;;4880372;29;20438;-84
2022/03/03 05:26:09;;;;;;;11.68;5.40;;;-1.00;99.90;;;;;;4880635;29;20402;-84
2022/03/03 05:28:37;;;;;;;10.23;5.47;;;-1.00;99.90;;;;;;4894664;29;20415;-84
2022/03/03 05:31:04;;;;;;;11.02;5.78;;;-1.10;99.90;;;;;;4894161;29;20493;-82
2022/03/03 05:33:33;;;;;;;10.87;5.57;;;-1.20;99.90;;;;;;4894797;29;20854;-83
2022/03/03 05:36:06;;;;;;;10.32;5.20;;;-1.10;99.90;;;;;;4879145;29;20418;-83
2022/03/03 05:38:34;;;;;;;10.07;4.80;;;-1.20;99.90;;;;;;4894394;29;20755;-83
2022/03/03 05:41:04;;;;;;;12.85;6.35;;;-1.30;99.90;;;;;;4879154;29;20407;-83
2022/03/03 05:43:32;;;;;;;9.85;5.38;;;-1.20;99.90;;;;;;4894406;29;20484;-83
2022/03/03 05:46:00;;;;;;;14.07;6.55;;;-1.30;99.90;;;;;;4879921;29;20758;-82
2022/03/03 05:48:28;;;;;;;10.60;5.50;;;-1.30;99.90;;;;;;4894506;29;20414;-82
2022/03/03 05:50:56;;;;;;;9.75;4.90;;;-1.20;99.90;;;;;;4878818;29;20406;-82
2022/03/03 05:53:25;;;;;;;9.18;4.40;;;-1.30;99.90;;;;;;4863523;29;20887;-83
2022/03/03 05:55:54;;;;;;;8.57;4.45;;;-1.40;99.90;;;;;;4879694;29;20498;-83
2022/03/03 05:58:29;;;;;;;9.95;4.60;;;-1.40;99.90;;;;;;4878426;29;20448;-81
2022/03/03 06:00:58;;;;;;;9.23;4.82;;;-1.60;99.90;;;;;;4878554;29;20402;-83
2022/03/03 06:03:30;;;;;;;8.98;4.70;;;-1.40;99.90;;;;;;4878761;29;20482;-83
2022/03/03 06:06:07;;;;;;;9.23;4.63;;;-1.50;99.90;;;;;;4878515;29;20463;-81
2022/03/03 06:08:41;;;;;;;8.95;4.32;;;-1.40;99.90;;;;;;4862437;29;20411;-81
2022/03/03 06:11:15;;;;;;;11.47;4.37;;;-1.40;99.90;;;;;;4877863;29;20415;-81
2022/03/03 06:13:47;;;;;;;7.63;4.35;;;-1.50;99.90;;;;;;4878345;29;20454;-82
2022/03/03 06:16:19;;;;;;;9.43;4.20;;;-1.50;99.90;;;;;;4878938;29;20402;-81
2022/03/03 06:18:49;;;;;;;9.45;4.28;;;-1.60;99.90;;;;;;4878019;29;20395;-81
2022/03/03 06:21:17;;;;;;;8.80;4.35;;;-1.50;99.90;;;;;;4879023;29;20410;-81
2022/03/03 06:23:45;;;;;;;10.23;4.25;;;-1.50;99.90;;;;;;4879279;29;20930;-82
2022/03/03 06:26:16;;;;;;;9.30;4.50;;;-1.50;99.90;;;;;;4893758;29;20783;-81
2022/03/03 06:28:44;;;;;;;8.07;4.18;;;-1.60;99.90;;;;;;4877993;29;20494;-81
2022/03/03 06:31:12;;;;;;;8.48;4.45;;;-1.60;99.90;;;;;;4878051;29;20399;-81
2022/03/03 06:33:41;;;;;;;8.52;4.20;;;-1.60;99.90;;;;;;4893441;29;20482;-82
2022/03/03 06:36:09;;;;;;;9.27;4.38;;;-1.60;99.90;;;;;;4878153;29;20482;-82
2022/03/03 06:38:37;;;;;;;8.07;4.45;;;-1.60;99.90;;;;;;4879051;29;20577;-81
2022/03/03 06:41:05;;;;;;;7.72;3.67;;;-1.50;99.90;;;;;;4878979;29;20391;-81
2022/03/03 06:43:35;;;;;;;8.77;4.10;;;-1.50;99.90;;;;;;4877765;29;20403;-82
2022/03/03 06:46:04;;;;;;;8.73;4.10;;;-1.50;99.90;;;;;;4878918;29;20504;-81
2022/03/03 06:48:32;;;;;;;7.50;3.90;;;-1.50;99.90;;;;;;4877537;29;20411;-81
2022/03/03 06:51:03;;;;;;;7.10;3.80;;;-1.60;99.90;;;;;;4877664;29;20924;-82
2022/03/03 06:53:36;;;;;;;9.75;4.45;;;-1.60;99.90;;;;;;4877545;29;20407;-82
2022/03/03 06:56:09;;;;;;;8.98;4.07;;;-1.50;99.90;;;;;;4878834;29;20538;-81
2022/03/03 06:58:37;;;;;;;11.50;4.65;;;-1.60;99.90;;;;;;4878713;29;20410;-82
2022/03/03 07:01:08;;;;;;;10.45;4.20;;;-1.50;99.90;;;;;;4877689;29;20462;-82
2022/03/03 07:03:37;;;;;;;9.00;4.47;;;-1.50;99.90;;;;;;4878646;29;20399;-82
2022/03/03 07:06:05;;;;;;;9.20;4.25;;;-1.50;99.90;;;;;;4878609;29;20443;-81
2022/03/03 07:08:33;;;;;;;10.88;4.63;;;-1.50;99.90;;;;;;4877439;29;20403;-82
2022/03/03 07:11:01;;;;;;;11.68;4.82;;;-1.40;99.90;;;;;;4877381;29;20414;-82
2022/03/03 07:13:29;;;;;;;11.52;4.97;;;-1.50;99.90;;;;;;4878483;29;20459;-81
2022/03/03 07:16:39;;;;;;;9.02;4.20;;;-1.50;99.90;;;;;;4877977;29;20407;-82
2022/03/03 07:19:27;;;;;;;10.83;4.37;;;-1.40;99.90;;;;;;4891786;29;20415;-82
2022/03/03 07:22:07;;;;;;;8.20;4.67;;;-1.40;99.90;;;;;;4876989;29;20411;-82
2022/03/03 07:25:03;;;;;;;10.45;4.63;;;-1.40;99.90;;;;;;4877271;29;20436;-82
2022/03/03 07:27:32;;;;;;;10.70;5.28;;;-1.30;99.90;;;;;;4868074;29;20431;-83
2022/03/03 07:30:08;;;;;;;10.30;4.88;;;-1.30;99.90;;;;;;4892576;29;20440;-82
2022/03/03 07:32:39;;;;;;;11.43;5.10;;;-1.30;99.90;;;;;;4878204;29;20881;-83
2022/03/03 07:35:12;;;;;;;10.85;4.80;;;-1.20;99.90;;;;;;4877109;29;20402;-82
2022/03/03 07:37:49;;;;;;;9.32;4.90;;;-1.20;99.90;;;;;;4877106;29;20407;-82
2022/03/03 07:40:17;;;;;;;9.48;4.63;;;-1.20;99.90;;;;;;4876927;29;20415;-82
2022/03/03 07:42:45;;;;;;;9.60;4.30;;;-1.20;99.90;;;;;;4876942;29;20407;-82
2022/03/03 07:45:12;;;;;;;10.98;4.43;;;-1.20;99.90;;;;;;4892193;29;20410;-82
2022/03/03 07:47:41;;;;;;;11.13;4.80;;;-1.30;99.90;;;;;;4878192;29;20423;-81
2022/03/03 07:50:09;;;;;;;8.63;4.28;;;-1.20;99.90;;;;;;4877976;29;20435;-82
2022/03/03 07:52:37;;;;;;;9.48;4.20;;;-1.20;99.90;;;;;;4876613;29;20403;-81
2022/03/03 07:55:06;;;;;;;7.82;4.00;;;-1.30;99.90;;;;;;4861461;29;20902;-82
2022/03/03 07:57:38;;;;;;;9.57;4.18;;;-1.30;99.90;;;;;;4876674;29;20517;-82
2022/03/03 08:00:13;;;;;;;10.30;4.30;;;-1.30;99.90;;;;;;4877865;29;20414;-82
2022/03/03 08:02:44;;;;;;;10.18;4.15;;;-1.30;99.90;;;;;;4876511;29;20446;-81
2022/03/03 08:05:12;;;;;;;8.00;4.38;;;-1.30;99.90;;;;;;4877831;29;20403;-81
2022/03/03 08:07:45;;;;;;;7.80;4.30;;;-1.30;99.90;;;;;;4876448;29;20410;-82
2022/03/03 08:10:15;;;;;;;7.63;4.38;;;-1.20;99.90;;;;;;4876904;29;20965;-82
2022/03/03 08:12:43;;;;;;;9.32;4.20;;;-1.30;99.90;;;;;;4876593;29;20827;-82
2022/03/03 08:15:11;;;;;;;8.35;4.70;;;-1.30;99.90;;;;;;4876457;29;20890;-82
2022/03/03 08:17:40;;;;;;;9.98;4.40;;;-1.20;99.90;;;;;;4876315;29;20418;-82
2022/03/03 08:20:08;;;;;;;9.88;4.28;;;-1.20;99.90;;;;;;4877459;29;20419;-82
2022/03/03 08:22:38;;;;;;;9.25;4.68;;;-1.10;99.90;;;;;;4876657;29;20518;-82
2022/03/03 08:25:08;;;;;;;9.98;4.45;;;-1.00;99.90;;;;;;4877678;29;20441;-82
2022/03/03 08:27:36;;;;;;;8.23;4.05;;;-1.10;99.90;;;;;;4877574;29;20893;-82
2022/03/03 08:30:06;;;;;;;11.27;4.25;;;-1.10;99.90;;;;;;4877611;29;20410;-82
2022/03/03 08:32:38;;;;;;;8.48;4.25;;;-1.00;99.90;;;;;;4880059;29;20391;-82
2022/03/03 08:35:15;;;;;;;8.75;4.43;;;-1.00;99.90;;;;;;4881259;29;20407;-82
2022/03/03 08:38:05;;;;;;;10.52;4.10;;;-1.00;99.90;;;;;;4895582;29;20403;-82
2022/03/03 08:40:34;;;;;;;8.68;4.22;;;-1.00;99.90;;;;;;4881121;29;20425;-81
2022/03/03 08:43:04;;;;;;;10.50;4.10;;;-1.00;99.90;;;;;;4881189;29;20455;-83
2022/03/03 08:45:34;;;;;;;7.57;3.78;;;-1.00;99.90;;;;;;4881342;29;20426;-81
2022/03/03 08:48:08;;;;;;;8.95;4.32;;;-1.00;99.90;;;;;;4881101;29;20406;-82
2022/03/03 08:50:38;;;;;;;8.88;3.72;;;-1.00;99.90;;;;;;4879841;29;20554;-81
2022/03/03 08:53:08;;;;;;;8.05;3.80;;;-0.90;99.90;;;;;;4880042;29;20430;-82
2022/03/03 08:55:38;;;;;;;9.75;3.90;;;-0.90;99.90;;;;;;4881180;29;20447;-81
2022/03/03 08:58:10;;;;;;;7.40;3.93;;;-0.80;99.90;;;;;;4879820;29;20446;-81
2022/03/03 09:00:38;;;;;;;8.82;3.75;;;-0.80;99.90;;;;;;4864213;29;20422;-81
2022/03/03 09:03:06;;;;;;;9.52;3.58;;;-0.80;99.90;;;;;;4879710;29;20399;-81
2022/03/03 09:05:34;;;;;;;10.73;4.63;;;-0.80;99.90;;;;;;4864135;29;20410;-81
2022/03/03 09:08:01;;;;;;;9.93;4.32;;;-0.80;99.90;;;;;;4880681;29;20836;-82
2022/03/03 09:10:29;;;;;;;10.55;4.40;;;-0.80;99.90;;;;;;4880692;29;20411;-81
2022/03/03 09:12:57;;;;;;;6.97;3.90;;;-0.80;99.90;;;;;;4879489;29;20439;-82
2022/03/03 09:15:24;;;;;;;10.07;3.95;;;-0.70;99.90;;;;;;4894912;29;20430;-81
2022/03/03 09:17:52;;;;;;;9.48;4.00;;;-0.70;99.90;;;;;;4879304;29;20418;-81
2022/03/03 09:20:20;;;;;;;9.10;3.80;;;-0.60;99.90;;;;;;4879098;29;20425;-81
2022/03/03 09:22:53;;;;;;;9.10;3.47;;;-0.60;99.90;;;;;;4880466;29;20456;-81
2022/03/03 09:25:21;;;;;;;9.88;4.10;;;-0.50;99.90;;;;;;4863708;29;20475;-82
2022/03/03 09:27:48;;;;;;;10.07;4.10;;;-0.50;99.90;;;;;;4879315;29;20802;-81
2022/03/03 09:30:16;;;;;;;9.05;3.97;;;-0.50;99.90;;;;;;4879096;29;20434;-81
2022/03/03 09:32:44;;;;;;;10.02;3.97;;;-0.50;99.90;;;;;;4880430;29;20437;-81
2022/03/03 09:35:11;;;;;;;7.22;3.42;;;-0.40;99.90;;;;;;4878894;29;20402;-83
2022/03/03 09:37:39;;;;;;;8.85;3.78;;;-0.40;99.90;;;;;;4880438;29;20415;-82
2022/03/03 09:40:09;;;;;;;10.35;4.43;;;-0.30;99.90;;;;;;4879185;29;20463;-81
2022/03/03 09:42:36;;;;;;;7.53;3.10;;;-0.30;99.90;;;;;;4878056;29;20523;-83
2022/03/03 09:45:06;;;;;;;8.18;3.65;;;-0.20;99.90;;;;;;4880196;29;20415;-83
2022/03/03 09:47:35;;;;;;;9.05;3.90;;;-0.20;99.90;;;;;;4880015;29;20871;-84
2022/03/03 09:50:05;;;;;;;8.50;3.60;;;-0.20;99.90;;;;;;4894322;29;20463;-83
2022/03/03 09:52:34;;;;;;;9.27;3.45;;;-0.10;99.90;;;;;;4879938;29;20403;-83
2022/03/03 09:55:02;;;;;;;10.52;3.67;;;-0.10;99.90;;;;;;4879837;29;20438;-83
2022/03/03 09:57:31;;;;;;;9.27;3.58;;;0.10;99.90;;;;;;4894060;29;20407;-83
2022/03/03 09:59:59;;;;;;;9.27;3.85;;;0.10;99.90;;;;;;4878771;29;20463;-84
2022/03/03 10:02:27;;;;;;;11.15;4.50;;;0.10;99.90;;;;;;4878548;29;20403;-83
2022/03/03 10:04:56;;;;;;;10.25;4.20;;;0.10;99.90;;;;;;4878401;29;20403;-84
2022/03/03 10:07:25;;;;;;;9.27;3.90;;;0.20;99.90;;;;;;4878493;29;20407;-84
2022/03/03 10:09:59;;;;;;;7.55;3.42;;;0.20;99.90;;;;;;4878375;29;20490;-84
2022/03/03 10:12:43;;;;;;;9.32;3.30;;;0.30;99.90;;;;;;4863815;29;20841;-82
2022/03/03 10:15:15;;;;;;;10.77;4.00;;;0.40;99.90;;;;;;4863009;29;20430;-84
2022/03/03 10:17:43;;;;;;;9.45;3.95;;;0.40;99.90;;;;;;4878278;29;20410;-81
2022/03/03 10:20:11;;;;;;;10.13;3.70;;;0.50;99.90;;;;;;4878369;29;20415;-83
2022/03/03 10:22:47;;;;;;;9.20;3.58;;;0.60;99.90;;;;;;4878145;29;20418;-82
2022/03/03 10:25:27;;;;;;;8.73;3.30;;;0.70;99.90;;;;;;4878225;29;20486;-82
2022/03/03 10:27:55;;;;;;;7.53;3.60;;;0.80;99.90;;;;;;4878305;29;20449;-82
2022/03/03 10:30:23;;;;;;;7.95;3.05;;;0.80;99.90;;;;;;4893609;29;20455;-82
2022/03/03 10:32:50;;;;;;;5.38;2.72;;;0.90;99.90;;;;;;4877999;29;20411;-82
2022/03/03 10:35:19;;;;;;;6.70;2.90;;;1.00;99.90;;;;;;4877959;29;20410;-82
2022/03/03 10:37:47;;;;;;;8.20;3.07;;;1.10;99.90;;;;;;4878188;29;20527;-82
2022/03/03 10:40:16;;;;;;;7.90;2.70;;;1.10;99.90;;;;;;4878005;29;20415;-83
2022/03/03 10:42:50;;;;;;;7.45;2.70;;;1.20;99.90;;;;;;4877809;29;20463;-82
2022/03/03 10:45:19;;;;;;;7.43;2.90;;;1.30;99.90;;;;;;4879045;29;20479;-82
2022/03/03 10:48:03;;;;;;;7.10;2.85;;;1.40;99.90;;;;;;4877914;29;20466;-83
2022/03/03 10:50:49;;;;;;;7.07;2.80;;;1.50;99.90;;;;;;4877943;29;20479;-84
2022/03/03 10:53:21;;;;;;;6.30;2.60;;;1.60;99.90;;;;;;4893000;29;20766;-82
2022/03/03 10:56:19;;;;;;;6.55;3.00;;;1.60;99.90;;;;;;4878894;29;20399;-83
2022/03/03 10:58:49;;;;;;;6.97;2.70;;;1.70;99.90;;;;;;4863952;29;20423;-83
2022/03/03 11:01:20;;;;;;;6.32;2.30;;;1.70;99.90;;;;;;4892989;29;20474;-82
2022/03/03 11:03:53;;;;;;;7.55;2.47;;;1.90;99.90;;;;;;4878758;29;20752;-82
2022/03/03 11:06:26;;;;;;;4.70;2.13;;;2.00;99.90;;;;;;4893262;29;20494;-82
2022/03/03 11:08:55;;;;;;;5.90;2.10;;;2.10;99.90;;;;;;4877527;29;20494;-85
2022/03/03 11:11:24;;;;;;;5.25;2.08;;;2.20;99.90;;;;;;4877503;29;20425;-85
2022/03/03 11:13:52;;;;;;;6.75;2.25;;;2.30;99.90;;;;;;4878501;29;20406;-83
2022/03/03 11:16:22;;;;;;;4.45;2.20;;;2.30;99.90;;;;;;4861888;29;20437;-84
2022/03/03 11:18:51;;;;;;;5.80;2.40;;;2.40;99.90;;;;;;4877309;29;20446;-84
2022/03/03 11:21:19;;;;;;;6.47;2.25;;;2.50;99.90;;;;;;4878371;29;20454;-85
2022/03/03 11:23:52;;;;;;;5.80;2.37;;;2.50;99.90;;;;;;4878525;29;20403;-84
2022/03/03 11:26:30;;;;;;;5.47;2.03;;;2.70;99.90;;;;;;4877359;29;20489;-85
2022/03/03 11:29:00;;;;;;;5.93;2.10;;;2.70;99.90;;;;;;4877230;29;20399;-82
2022/03/03 11:31:33;;;;;;;7.85;2.13;;;2.80;99.90;;;;;;4877253;29;20874;-83
2022/03/03 11:34:29;;;;;;;6.25;2.30;;;2.70;99.90;;;;;;4878330;29;20969;-84
2022/03/03 11:37:02;;;;;;;7.33;2.27;;;2.50;99.90;;;;;;4878254;29;20399;-84
2022/03/03 11:39:45;;;;;;;6.25;2.10;;;2.60;99.90;;;;;;4878210;29;20435;-83
2022/03/03 11:42:34;;;;;;;5.55;2.33;;;2.70;99.90;;;;;;4892218;29;20419;-83
2022/03/03 11:45:08;;;;;;;7.78;2.10;;;2.60;99.90;;;;;;4876933;29;20399;-82
2022/03/03 11:47:38;;;;;;;6.50;2.28;;;2.80;99.90;;;;;;4876959;29;20405;-83
2022/03/03 11:50:25;;;;;;;7.47;2.33;;;2.90;99.90;;;;;;4878336;29;20394;-83
2022/03/03 11:52:59;;;;;;;6.32;2.38;;;3.10;99.90;;;;;;4876896;29;20934;-85
2022/03/03 11:55:31;;;;;;;5.32;2.35;;;3.20;99.90;;;;;;4877261;29;20486;-84
2022/03/03 11:58:09;;;;;;;6.22;2.60;;;3.20;99.90;;;;;;4876940;29;20403;-84
2022/03/03 12:00:46;;;;;;;6.57;2.20;;;3.10;99.90;;;;;;4876672;29;20422;-84
2022/03/03 12:03:17;;;;;;;7.65;2.33;;;3.30;99.90;;;;;;4877900;29;20407;-84
2022/03/03 12:06:10;;;;;;;6.70;2.50;;;3.50;99.90;;;;;;4877459;29;20774;-85
2022/03/03 12:08:42;;;;;;;7.30;2.22;;;3.60;99.90;;;;;;4876619;29;20403;-84
2022/03/03 12:11:15;;;;;;;5.53;2.30;;;3.70;99.90;;;;;;4876969;29;20411;-85
2022/03/03 12:13:48;;;;;;;6.88;2.40;;;3.70;99.90;;;;;;4876684;29;20415;-84
2022/03/03 12:16:27;;;;;;;5.65;2.38;;;3.80;99.90;;;;;;4878088;29;20399;-85
2022/03/03 12:18:58;;;;;;;5.50;2.10;;;3.80;99.90;;;;;;4876759;29;20819;-85
2022/03/03 12:21:43;;;;;;;7.20;2.20;;;4.00;99.90;;;;;;4876848;29;20426;-84
2022/03/03 12:24:17;;;;;;;6.70;2.00;;;3.90;99.90;;;;;;4877693;29;20486;-85
2022/03/03 12:26:51;;;;;;;6.57;2.20;;;4.10;99.90;;;;;;4892141;29;20431;-85
2022/03/03 12:29:52;;;;;;;4.60;1.83;;;3.80;99.90;;;;;;4892182;29;21065;-85
2022/03/03 12:32:46;;;;;;;5.88;2.20;;;3.90;99.90;;;;;;4879050;29;20481;-85
2022/03/03 12:35:30;;;;;;;5.72;2.10;;;4.20;99.90;;;;;;4877923;29;20449;-85
2022/03/03 12:38:02;;;;;;;8.38;2.45;;;3.90;99.90;;;;;;4861055;29;20405;-85
2022/03/03 12:40:31;;;;;;;4.82;1.85;;;3.70;99.90;;;;;;4861010;29;20420;-84
2022/03/03 12:42:58;;;;;;;6.13;2.10;;;3.60;99.90;;;;;;4877527;29;20886;-84
2022/03/03 12:45:30;;;;;;;3.67;1.73;;;3.50;99.90;;;;;;4876348;29;20411;-84
2022/03/03 12:47:58;;;;;;;5.95;1.98;;;3.60;99.90;;;;;;4876471;29;20483;-84
2022/03/03 12:50:29;;;;;;;4.20;1.90;;;3.50;99.90;;;;;;4876475;29;20395;-84
2022/03/03 12:53:03;;;;;;;5.72;1.73;;;3.50;99.90;;;;;;4877483;29;20426;-84
2022/03/03 12:55:34;;;;;;;7.38;2.30;;;3.50;99.90;;;;;;4877450;29;20929;-83
2022/03/03 12:58:06;;;;;;;4.70;1.93;;;3.50;99.90;;;;;;4877432;29;20399;-84